sensor_id;sensor_type;location;lat;lon;timestamp;P1;durP1;ratioP1;P2;durP2;ratioP2
22060;SDS011;11194;48.092;-1.382;2024-01-15T00:00:01;724.92;;;674.10;;
22060;SDS011;11194;48.092;-1.382;2024-01-15T00:02:29;729.33;;;678.30;;
22060;SDS011;11194;48.092;-1.382;2024-01-15T00:04:55;723.75;;;672.78;;
22060;SDS011;11194;48.092;-1.382;2024-01-15T00:07:21;720.35;;;669.92;;
22060;SDS011;11194;48.092;-1.382;2024-01-15T00:09:47;720.90;;;669.78;;
22060;SDS011;11194;48.092;-1.382;2024-01-15T00:12:13;724.15;;;672.63;;
22060;SDS011;11194;48.092;-1.382;2024-01-15T00:14:39;730.38;;;678.75;;
22060;SDS011;11194;48.092;-1.382;2024-01-15T00:17:05;741.92;;;689.55;;
22060;SDS011;11194;48.092;-1.382;2024-01-15T00:19:31;739.42;;;686.97;;
22060;SDS011;11194;48.092;-1.382;2024-01-15T00:21:57;734.97;;;682.72;;
22060;SDS011;11194;48.092;-1.382;2024-01-15T00:24:24;729.95;;;678.22;;
22060;SDS011;11194;48.092;-1.382;2024-01-15T00:26:50;726.47;;;674.85;;
22060;SDS011;11194;48.092;-1.382;2024-01-15T00:29:16;727.38;;;675.45;;
22060;SDS011;11194;48.092;-1.382;2024-01-15T00:31:42;718.03;;;666.17;;
22060;SDS011;11194;48.092;-1.382;2024-01-15T00:34:08;712.25;;;660.15;;
22060;SDS011;11194;48.092;-1.382;2024-01-15T00:36:34;710.08;;;658.70;;
22060;SDS011;11194;48.092;-1.382;2024-01-15T00:39:00;715.10;;;663.30;;
22060;SDS011;11194;48.092;-1.382;2024-01-15T00:41:26;707.90;;;656.33;;
22060;SDS011;11194;48.092;-1.382;2024-01-15T00:43:52;703.17;;;651.85;;
22060;SDS011;11194;48.092;-1.382;2024-01-15T00:46:18;712.03;;;660.63;;
22060;SDS011;11194;48.092;-1.382;2024-01-15T00:48:44;702.97;;;652.10;;
22060;SDS011;11194;48.092;-1.382;2024-01-15T00:51:11;720.03;;;668.80;;
22060;SDS011;11194;48.092;-1.382;2024-01-15T00:53:38;719.03;;;667.50;;
22060;SDS011;11194;48.092;-1.382;2024-01-15T00:56:04;716.25;;;665.03;;
22060;SDS011;11194;48.092;-1.382;2024-01-15T00:58:30;695.53;;;644.78;;
22060;SDS011;11194;48.092;-1.382;2024-01-15T01:00:56;729.50;;;677.67;;
22060;SDS011;11194;48.092;-1.382;2024-01-15T01:03:22;724.63;;;672.80;;
22060;SDS011;11194;48.092;-1.382;2024-01-15T01:05:48;717.67;;;666.00;;
22060;SDS011;11194;48.092;-1.382;2024-01-15T01:08:15;727.47;;;675.15;;
22060;SDS011;11194;48.092;-1.382;2024-01-15T01:10:41;720.95;;;668.53;;
22060;SDS011;11194;48.092;-1.382;2024-01-15T01:13:10;711.47;;;659.53;;
22060;SDS011;11194;48.092;-1.382;2024-01-15T01:15:36;714.00;;;661.78;;
22060;SDS011;11194;48.092;-1.382;2024-01-15T01:18:02;733.05;;;680.15;;
22060;SDS011;11194;48.092;-1.382;2024-01-15T01:20:28;725.78;;;673.25;;
22060;SDS011;11194;48.092;-1.382;2024-01-15T01:22:55;711.83;;;659.42;;
22060;SDS011;11194;48.092;-1.382;2024-01-15T01:25:21;727.17;;;674.38;;
22060;SDS011;11194;48.092;-1.382;2024-01-15T01:27:47;726.78;;;673.72;;
22060;SDS011;11194;48.092;-1.382;2024-01-15T01:30:13;723.40;;;670.15;;
22060;SDS011;11194;48.092;-1.382;2024-01-15T01:32:39;722.70;;;669.50;;
22060;SDS011;11194;48.092;-1.382;2024-01-15T01:35:05;723.70;;;670.20;;
22060;SDS011;11194;48.092;-1.382;2024-01-15T01:37:31;735.38;;;681.58;;
22060;SDS011;11194;48.092;-1.382;2024-01-15T01:39:59;731.10;;;677.10;;
22060;SDS011;11194;48.092;-1.382;2024-01-15T01:42:25;718.42;;;664.67;;
22060;SDS011;11194;48.092;-1.382;2024-01-15T01:44:51;743.28;;;688.83;;
22060;SDS011;11194;48.092;-1.382;2024-01-15T01:47:17;734.65;;;680.85;;
22060;SDS011;11194;48.092;-1.382;2024-01-15T01:49:44;729.75;;;675.72;;
22060;SDS011;11194;48.092;-1.382;2024-01-15T01:52:10;713.10;;;659.30;;
22060;SDS011;11194;48.092;-1.382;2024-01-15T01:54:36;733.20;;;678.45;;
22060;SDS011;11194;48.092;-1.382;2024-01-15T01:57:03;735.88;;;680.88;;
22060;SDS011;11194;48.092;-1.382;2024-01-15T01:59:29;718.92;;;664.85;;
22060;SDS011;11194;48.092;-1.382;2024-01-15T02:01:56;727.45;;;672.90;;
22060;SDS011;11194;48.092;-1.382;2024-01-15T02:04:25;721.47;;;666.78;;
22060;SDS011;11194;48.092;-1.382;2024-01-15T02:06:52;718.40;;;663.80;;
22060;SDS011;11194;48.092;-1.382;2024-01-15T02:09:18;735.40;;;680.17;;
22060;SDS011;11194;48.092;-1.382;2024-01-15T02:11:46;738.30;;;682.85;;
22060;SDS011;11194;48.092;-1.382;2024-01-15T02:14:12;705.72;;;651.22;;
22060;SDS011;11194;48.092;-1.382;2024-01-15T02:16:38;728.67;;;673.65;;
22060;SDS011;11194;48.092;-1.382;2024-01-15T02:19:04;729.70;;;673.92;;
22060;SDS011;11194;48.092;-1.382;2024-01-15T02:21:33;727.20;;;671.33;;
22060;SDS011;11194;48.092;-1.382;2024-01-15T02:23:59;747.45;;;691.50;;
22060;SDS011;11194;48.092;-1.382;2024-01-15T02:26:26;735.30;;;678.95;;
22060;SDS011;11194;48.092;-1.382;2024-01-15T02:28:52;731.55;;;675.45;;
22060;SDS011;11194;48.092;-1.382;2024-01-15T02:31:18;715.20;;;660.08;;
22060;SDS011;11194;48.092;-1.382;2024-01-15T02:33:44;747.15;;;691.03;;
22060;SDS011;11194;48.092;-1.382;2024-01-15T02:36:11;725.03;;;669.35;;
22060;SDS011;11194;48.092;-1.382;2024-01-15T02:38:37;732.53;;;676.03;;
22060;SDS011;11194;48.092;-1.382;2024-01-15T02:41:03;731.40;;;674.72;;
22060;SDS011;11194;48.092;-1.382;2024-01-15T02:43:29;733.40;;;676.65;;
22060;SDS011;11194;48.092;-1.382;2024-01-15T02:45:55;736.90;;;679.47;;
22060;SDS011;11194;48.092;-1.382;2024-01-15T02:48:21;732.25;;;675.80;;
22060;SDS011;11194;48.092;-1.382;2024-01-15T02:50:47;723.00;;;666.78;;
22060;SDS011;11194;48.092;-1.382;2024-01-15T02:53:13;726.28;;;668.88;;
22060;SDS011;11194;48.092;-1.382;2024-01-15T02:55:39;738.28;;;680.53;;
22060;SDS011;11194;48.092;-1.382;2024-01-15T02:58:05;726.67;;;669.83;;
22060;SDS011;11194;48.092;-1.382;2024-01-15T03:00:31;725.65;;;668.60;;
22060;SDS011;11194;48.092;-1.382;2024-01-15T03:02:57;722.55;;;665.55;;
22060;SDS011;11194;48.092;-1.382;2024-01-15T03:05:23;746.10;;;689.00;;
22060;SDS011;11194;48.092;-1.382;2024-01-15T03:07:49;729.55;;;672.17;;
22060;SDS011;11194;48.092;-1.382;2024-01-15T03:10:15;725.33;;;668.38;;
22060;SDS011;11194;48.092;-1.382;2024-01-15T03:12:41;741.53;;;683.70;;
22060;SDS011;11194;48.092;-1.382;2024-01-15T03:15:07;714.78;;;657.22;;
22060;SDS011;11194;48.092;-1.382;2024-01-15T03:17:33;731.58;;;673.85;;
22060;SDS011;11194;48.092;-1.382;2024-01-15T03:19:59;719.88;;;661.97;;
22060;SDS011;11194;48.092;-1.382;2024-01-15T03:22:26;728.15;;;669.38;;
22060;SDS011;11194;48.092;-1.382;2024-01-15T03:24:52;746.33;;;687.67;;
22060;SDS011;11194;48.092;-1.382;2024-01-15T03:27:18;709.10;;;650.72;;
22060;SDS011;11194;48.092;-1.382;2024-01-15T03:29:44;737.30;;;678.33;;
22060;SDS011;11194;48.092;-1.382;2024-01-15T03:32:10;723.28;;;664.05;;
22060;SDS011;11194;48.092;-1.382;2024-01-15T03:34:36;730.22;;;671.05;;
22060;SDS011;11194;48.092;-1.382;2024-01-15T03:37:02;713.80;;;655.55;;
22060;SDS011;11194;48.092;-1.382;2024-01-15T03:39:28;735.20;;;676.50;;
22060;SDS011;11194;48.092;-1.382;2024-01-15T03:41:55;725.67;;;665.97;;
22060;SDS011;11194;48.092;-1.382;2024-01-15T03:44:21;718.92;;;659.97;;
22060;SDS011;11194;48.092;-1.382;2024-01-15T03:46:47;731.28;;;672.30;;
22060;SDS011;11194;48.092;-1.382;2024-01-15T03:49:13;747.90;;;687.88;;
22060;SDS011;11194;48.092;-1.382;2024-01-15T03:51:39;717.00;;;657.65;;
22060;SDS011;11194;48.092;-1.382;2024-01-15T03:54:05;713.50;;;655.00;;
22060;SDS011;11194;48.092;-1.382;2024-01-15T03:56:31;735.72;;;676.28;;
22060;SDS011;11194;48.092;-1.382;2024-01-15T03:58:57;704.35;;;646.28;;
22060;SDS011;11194;48.092;-1.382;2024-01-15T04:01:23;701.55;;;643.40;;
22060;SDS011;11194;48.092;-1.382;2024-01-15T04:03:49;712.33;;;653.83;;
22060;SDS011;11194;48.092;-1.382;2024-01-15T04:06:15;705.40;;;646.60;;
22060;SDS011;11194;48.092;-1.382;2024-01-15T04:08:41;744.90;;;686.38;;
22060;SDS011;11194;48.092;-1.382;2024-01-15T04:11:07;696.45;;;638.05;;
22060;SDS011;11194;48.092;-1.382;2024-01-15T04:13:33;695.33;;;637.88;;
22060;SDS011;11194;48.092;-1.382;2024-01-15T04:15:59;697.47;;;639.08;;
22060;SDS011;11194;48.092;-1.382;2024-01-15T04:18:25;704.30;;;645.95;;
22060;SDS011;11194;48.092;-1.382;2024-01-15T04:20:51;699.40;;;641.63;;
22060;SDS011;11194;48.092;-1.382;2024-01-15T04:23:18;711.38;;;653.03;;
22060;SDS011;11194;48.092;-1.382;2024-01-15T04:25:44;700.22;;;642.40;;
22060;SDS011;11194;48.092;-1.382;2024-01-15T04:28:11;690.95;;;633.20;;
22060;SDS011;11194;48.092;-1.382;2024-01-15T04:30:37;697.50;;;639.58;;
22060;SDS011;11194;48.092;-1.382;2024-01-15T04:33:03;721.53;;;663.42;;
22060;SDS011;11194;48.092;-1.382;2024-01-15T04:35:30;686.58;;;628.80;;
22060;SDS011;11194;48.092;-1.382;2024-01-15T04:37:56;682.10;;;624.55;;
22060;SDS011;11194;48.092;-1.382;2024-01-15T04:40:22;694.90;;;636.88;;
22060;SDS011;11194;48.092;-1.382;2024-01-15T04:42:48;692.40;;;634.20;;
22060;SDS011;11194;48.092;-1.382;2024-01-15T04:45:14;692.00;;;633.83;;
22060;SDS011;11194;48.092;-1.382;2024-01-15T04:47:40;675.03;;;617.03;;
22060;SDS011;11194;48.092;-1.382;2024-01-15T04:50:07;688.90;;;629.88;;
22060;SDS011;11194;48.092;-1.382;2024-01-15T04:52:33;690.13;;;631.00;;
22060;SDS011;11194;48.092;-1.382;2024-01-15T04:54:59;683.85;;;624.83;;
22060;SDS011;11194;48.092;-1.382;2024-01-15T04:57:25;706.90;;;647.35;;
22060;SDS011;11194;48.092;-1.382;2024-01-15T04:59:51;682.05;;;623.42;;
22060;SDS011;11194;48.092;-1.382;2024-01-15T05:02:17;689.60;;;631.17;;
22060;SDS011;11194;48.092;-1.382;2024-01-15T05:04:43;687.20;;;629.85;;
22060;SDS011;11194;48.092;-1.382;2024-01-15T05:07:09;721.60;;;663.22;;
22060;SDS011;11194;48.092;-1.382;2024-01-15T05:09:35;706.10;;;648.00;;
22060;SDS011;11194;48.092;-1.382;2024-01-15T05:12:01;698.75;;;640.72;;
22060;SDS011;11194;48.092;-1.382;2024-01-15T05:14:28;697.92;;;640.92;;
22060;SDS011;11194;48.092;-1.382;2024-01-15T05:16:54;715.78;;;657.88;;
22060;SDS011;11194;48.092;-1.382;2024-01-15T05:19:20;705.92;;;648.00;;
22060;SDS011;11194;48.092;-1.382;2024-01-15T05:21:46;694.58;;;636.58;;
22060;SDS011;11194;48.092;-1.382;2024-01-15T05:24:12;700.67;;;642.88;;
22060;SDS011;11194;48.092;-1.382;2024-01-15T05:26:38;698.20;;;640.63;;
22060;SDS011;11194;48.092;-1.382;2024-01-15T05:29:04;700.55;;;643.55;;
22060;SDS011;11194;48.092;-1.382;2024-01-15T05:31:30;669.33;;;612.78;;
22060;SDS011;11194;48.092;-1.382;2024-01-15T05:33:56;693.83;;;636.33;;
22060;SDS011;11194;48.092;-1.382;2024-01-15T05:36:22;703.58;;;646.58;;
22060;SDS011;11194;48.092;-1.382;2024-01-15T05:38:48;734.33;;;676.67;;
22060;SDS011;11194;48.092;-1.382;2024-01-15T05:41:14;737.53;;;679.92;;
22060;SDS011;11194;48.092;-1.382;2024-01-15T05:43:40;737.15;;;679.70;;
22060;SDS011;11194;48.092;-1.382;2024-01-15T05:46:06;745.10;;;687.78;;
22060;SDS011;11194;48.092;-1.382;2024-01-15T05:48:32;723.50;;;667.15;;
22060;SDS011;11194;48.092;-1.382;2024-01-15T05:50:58;705.20;;;648.75;;
22060;SDS011;11194;48.092;-1.382;2024-01-15T05:53:25;717.67;;;660.40;;
22060;SDS011;11194;48.092;-1.382;2024-01-15T05:55:51;737.42;;;679.40;;
22060;SDS011;11194;48.092;-1.382;2024-01-15T05:58:17;756.60;;;697.67;;
22060;SDS011;11194;48.092;-1.382;2024-01-15T06:00:43;713.47;;;655.92;;
22060;SDS011;11194;48.092;-1.382;2024-01-15T06:03:09;696.15;;;638.88;;
22060;SDS011;11194;48.092;-1.382;2024-01-15T06:05:35;716.45;;;658.42;;
22060;SDS011;11194;48.092;-1.382;2024-01-15T06:08:01;723.42;;;665.22;;
22060;SDS011;11194;48.092;-1.382;2024-01-15T06:10:27;741.00;;;682.53;;
22060;SDS011;11194;48.092;-1.382;2024-01-15T06:12:53;705.30;;;647.75;;
22060;SDS011;11194;48.092;-1.382;2024-01-15T06:15:19;729.08;;;671.30;;
22060;SDS011;11194;48.092;-1.382;2024-01-15T06:17:45;727.03;;;668.90;;
22060;SDS011;11194;48.092;-1.382;2024-01-15T06:20:11;727.60;;;669.38;;
22060;SDS011;11194;48.092;-1.382;2024-01-15T06:22:37;711.63;;;653.42;;
22060;SDS011;11194;48.092;-1.382;2024-01-15T06:25:05;709.33;;;651.58;;
22060;SDS011;11194;48.092;-1.382;2024-01-15T06:27:31;702.85;;;644.80;;
22060;SDS011;11194;48.092;-1.382;2024-01-15T06:29:57;717.40;;;659.42;;
22060;SDS011;11194;48.092;-1.382;2024-01-15T06:32:23;717.00;;;658.35;;
22060;SDS011;11194;48.092;-1.382;2024-01-15T06:34:50;742.78;;;684.22;;
22060;SDS011;11194;48.092;-1.382;2024-01-15T06:37:16;721.60;;;663.58;;
22060;SDS011;11194;48.092;-1.382;2024-01-15T06:39:43;719.13;;;661.97;;
22060;SDS011;11194;48.092;-1.382;2024-01-15T06:42:09;768.22;;;709.42;;
22060;SDS011;11194;48.092;-1.382;2024-01-15T06:44:35;730.70;;;673.08;;
22060;SDS011;11194;48.092;-1.382;2024-01-15T06:47:02;722.10;;;664.33;;
22060;SDS011;11194;48.092;-1.382;2024-01-15T06:49:28;719.25;;;662.53;;
22060;SDS011;11194;48.092;-1.382;2024-01-15T06:51:55;744.53;;;686.75;;
22060;SDS011;11194;48.092;-1.382;2024-01-15T06:54:21;717.25;;;659.92;;
22060;SDS011;11194;48.092;-1.382;2024-01-15T06:56:47;733.53;;;675.42;;
22060;SDS011;11194;48.092;-1.382;2024-01-15T06:59:13;732.30;;;674.75;;
22060;SDS011;11194;48.092;-1.382;2024-01-15T07:01:39;725.97;;;668.58;;
22060;SDS011;11194;48.092;-1.382;2024-01-15T07:04:05;709.33;;;651.75;;
22060;SDS011;11194;48.092;-1.382;2024-01-15T07:06:31;670.50;;;613.67;;
22060;SDS011;11194;48.092;-1.382;2024-01-15T07:08:57;748.60;;;689.13;;
22060;SDS011;11194;48.092;-1.382;2024-01-15T07:11:23;733.28;;;674.90;;
22060;SDS011;11194;48.092;-1.382;2024-01-15T07:13:49;719.85;;;661.53;;
22060;SDS011;11194;48.092;-1.382;2024-01-15T07:16:15;713.22;;;655.22;;
22060;SDS011;11194;48.092;-1.382;2024-01-15T07:18:41;727.78;;;668.92;;
22060;SDS011;11194;48.092;-1.382;2024-01-15T07:21:07;714.75;;;655.67;;
22060;SDS011;11194;48.092;-1.382;2024-01-15T07:23:34;716.78;;;658.13;;
22060;SDS011;11194;48.092;-1.382;2024-01-15T07:26:00;717.75;;;659.05;;
22060;SDS011;11194;48.092;-1.382;2024-01-15T07:28:28;719.35;;;660.58;;
22060;SDS011;11194;48.092;-1.382;2024-01-15T07:30:55;730.75;;;671.80;;
22060;SDS011;11194;48.092;-1.382;2024-01-15T07:33:21;740.67;;;681.50;;
22060;SDS011;11194;48.092;-1.382;2024-01-15T07:35:47;739.88;;;681.00;;
22060;SDS011;11194;48.092;-1.382;2024-01-15T07:38:13;748.40;;;689.10;;
22060;SDS011;11194;48.092;-1.382;2024-01-15T07:40:39;721.70;;;662.92;;
22060;SDS011;11194;48.092;-1.382;2024-01-15T07:43:05;721.25;;;663.30;;
22060;SDS011;11194;48.092;-1.382;2024-01-15T07:45:31;719.72;;;660.95;;
22060;SDS011;11194;48.092;-1.382;2024-01-15T07:47:57;701.10;;;642.88;;
22060;SDS011;11194;48.092;-1.382;2024-01-15T07:50:23;735.95;;;676.63;;
22060;SDS011;11194;48.092;-1.382;2024-01-15T07:52:49;718.78;;;660.42;;
22060;SDS011;11194;48.092;-1.382;2024-01-15T07:55:15;722.97;;;664.33;;
22060;SDS011;11194;48.092;-1.382;2024-01-15T07:57:41;740.75;;;681.38;;
22060;SDS011;11194;48.092;-1.382;2024-01-15T08:00:07;734.38;;;675.47;;
22060;SDS011;11194;48.092;-1.382;2024-01-15T08:02:34;733.25;;;674.08;;
22060;SDS011;11194;48.092;-1.382;2024-01-15T08:05:00;733.60;;;674.45;;
22060;SDS011;11194;48.092;-1.382;2024-01-15T08:07:26;735.80;;;676.10;;
22060;SDS011;11194;48.092;-1.382;2024-01-15T08:09:52;738.80;;;678.83;;
22060;SDS011;11194;48.092;-1.382;2024-01-15T08:12:18;752.50;;;692.28;;
22060;SDS011;11194;48.092;-1.382;2024-01-15T08:14:44;746.38;;;685.88;;
22060;SDS011;11194;48.092;-1.382;2024-01-15T08:17:11;739.67;;;680.15;;
22060;SDS011;11194;48.092;-1.382;2024-01-15T08:19:37;735.08;;;675.35;;
22060;SDS011;11194;48.092;-1.382;2024-01-15T08:22:06;737.63;;;678.03;;
22060;SDS011;11194;48.092;-1.382;2024-01-15T08:24:32;753.38;;;692.80;;
22060;SDS011;11194;48.092;-1.382;2024-01-15T08:26:58;728.00;;;667.78;;
22060;SDS011;11194;48.092;-1.382;2024-01-15T08:29:24;733.50;;;673.40;;
22060;SDS011;11194;48.092;-1.382;2024-01-15T08:31:50;716.53;;;656.80;;
22060;SDS011;11194;48.092;-1.382;2024-01-15T08:34:16;743.22;;;682.20;;
22060;SDS011;11194;48.092;-1.382;2024-01-15T08:36:42;734.50;;;674.30;;
22060;SDS011;11194;48.092;-1.382;2024-01-15T08:39:08;731.80;;;671.60;;
22060;SDS011;11194;48.092;-1.382;2024-01-15T08:41:34;709.28;;;649.78;;
22060;SDS011;11194;48.092;-1.382;2024-01-15T08:44:00;734.90;;;674.60;;
22060;SDS011;11194;48.092;-1.382;2024-01-15T08:46:27;736.95;;;676.92;;
22060;SDS011;11194;48.092;-1.382;2024-01-15T08:48:54;737.40;;;677.95;;
22060;SDS011;11194;48.092;-1.382;2024-01-15T08:51:20;738.17;;;678.03;;
22060;SDS011;11194;48.092;-1.382;2024-01-15T08:53:46;732.63;;;672.45;;
22060;SDS011;11194;48.092;-1.382;2024-01-15T08:56:12;723.70;;;663.70;;
22060;SDS011;11194;48.092;-1.382;2024-01-15T08:58:38;733.42;;;673.10;;
22060;SDS011;11194;48.092;-1.382;2024-01-15T09:01:04;738.40;;;678.10;;
22060;SDS011;11194;48.092;-1.382;2024-01-15T09:03:30;739.58;;;678.72;;
22060;SDS011;11194;48.092;-1.382;2024-01-15T09:05:57;726.65;;;666.35;;
22060;SDS011;11194;48.092;-1.382;2024-01-15T09:08:23;740.15;;;679.72;;
22060;SDS011;11194;48.092;-1.382;2024-01-15T09:10:49;735.72;;;675.47;;
22060;SDS011;11194;48.092;-1.382;2024-01-15T09:13:15;731.65;;;671.65;;
22060;SDS011;11194;48.092;-1.382;2024-01-15T09:15:41;743.22;;;683.33;;
22060;SDS011;11194;48.092;-1.382;2024-01-15T09:18:08;737.38;;;678.15;;
22060;SDS011;11194;48.092;-1.382;2024-01-15T09:20:34;721.58;;;664.05;;
22060;SDS011;11194;48.092;-1.382;2024-01-15T09:23:01;732.15;;;673.53;;
22060;SDS011;11194;48.092;-1.382;2024-01-15T09:25:27;735.58;;;676.88;;
22060;SDS011;11194;48.092;-1.382;2024-01-15T09:27:54;716.30;;;658.50;;
22060;SDS011;11194;48.092;-1.382;2024-01-15T09:30:20;732.28;;;674.53;;
22060;SDS011;11194;48.092;-1.382;2024-01-15T09:32:46;725.17;;;667.63;;
22060;SDS011;11194;48.092;-1.382;2024-01-15T09:35:12;732.75;;;675.30;;
22060;SDS011;11194;48.092;-1.382;2024-01-15T09:37:39;713.40;;;656.80;;
22060;SDS011;11194;48.092;-1.382;2024-01-15T09:40:05;730.85;;;674.10;;
22060;SDS011;11194;48.092;-1.382;2024-01-15T09:42:31;728.10;;;672.28;;
22060;SDS011;11194;48.092;-1.382;2024-01-15T09:44:58;726.10;;;671.08;;
22060;SDS011;11194;48.092;-1.382;2024-01-15T09:47:24;728.13;;;673.45;;
22060;SDS011;11194;48.092;-1.382;2024-01-15T09:49:50;732.13;;;677.75;;
22060;SDS011;11194;48.092;-1.382;2024-01-15T09:52:16;723.00;;;668.42;;
22060;SDS011;11194;48.092;-1.382;2024-01-15T09:54:44;729.17;;;674.42;;
22060;SDS011;11194;48.092;-1.382;2024-01-15T09:57:11;739.63;;;684.17;;
22060;SDS011;11194;48.092;-1.382;2024-01-15T09:59:37;731.85;;;675.95;;
22060;SDS011;11194;48.092;-1.382;2024-01-15T10:02:04;733.10;;;674.42;;
22060;SDS011;11194;48.092;-1.382;2024-01-15T10:04:31;703.30;;;643.33;;
22060;SDS011;11194;48.092;-1.382;2024-01-15T10:06:57;711.50;;;651.90;;
22060;SDS011;11194;48.092;-1.382;2024-01-15T10:09:23;714.63;;;655.10;;
22060;SDS011;11194;48.092;-1.382;2024-01-15T10:11:49;718.28;;;659.75;;
22060;SDS011;11194;48.092;-1.382;2024-01-15T10:14:15;720.50;;;664.53;;
22060;SDS011;11194;48.092;-1.382;2024-01-15T10:16:41;724.65;;;670.50;;
22060;SDS011;11194;48.092;-1.382;2024-01-15T10:19:08;710.78;;;659.58;;
22060;SDS011;11194;48.092;-1.382;2024-01-15T10:21:35;696.60;;;647.13;;
22060;SDS011;11194;48.092;-1.382;2024-01-15T10:24:01;676.97;;;629.92;;
22060;SDS011;11194;48.092;-1.382;2024-01-15T10:26:27;651.50;;;610.90;;
22060;SDS011;11194;48.092;-1.382;2024-01-15T10:28:53;640.38;;;602.90;;
22060;SDS011;11194;48.092;-1.382;2024-01-15T10:31:19;482.48;;;461.58;;
22060;SDS011;11194;48.092;-1.382;2024-01-15T10:33:47;186.63;;;179.38;;
22060;SDS011;11194;48.092;-1.382;2024-01-15T10:36:13;19.40;;;18.65;;
22060;SDS011;11194;48.092;-1.382;2024-01-15T10:38:39;5.85;;;5.65;;
22060;SDS011;11194;48.092;-1.382;2024-01-15T10:41:05;0.63;;;0.63;;
22060;SDS011;11194;48.092;-1.382;2024-01-15T10:43:31;0.30;;;0.30;;
22060;SDS011;11194;48.092;-1.382;2024-01-15T10:45:59;0.30;;;0.30;;
22060;SDS011;11194;48.092;-1.382;2024-01-15T10:48:25;0.20;;;0.20;;
22060;SDS011;11194;48.092;-1.382;2024-01-15T10:50:53;0.20;;;0.20;;
22060;SDS011;11194;48.092;-1.382;2024-01-15T10:53:19;0.20;;;0.20;;
22060;SDS011;11194;48.092;-1.382;2024-01-15T10:55:46;0.20;;;0.20;;
22060;SDS011;11194;48.092;-1.382;2024-01-15T10:58:14;0.30;;;0.30;;
22060;SDS011;11194;48.092;-1.382;2024-01-15T11:00:40;0.20;;;0.20;;
22060;SDS011;11194;48.092;-1.382;2024-01-15T11:03:06;0.15;;;0.15;;
22060;SDS011;11194;48.092;-1.382;2024-01-15T11:05:39;0.20;;;0.20;;
22060;SDS011;11194;48.092;-1.382;2024-01-15T11:08:07;0.20;;;0.20;;
22060;SDS011;11194;48.092;-1.382;2024-01-15T11:10:40;0.15;;;0.15;;
22060;SDS011;11194;48.092;-1.382;2024-01-15T11:13:10;0.10;;;0.10;;
22060;SDS011;11194;48.092;-1.382;2024-01-15T11:18:21;0.10;;;0.10;;
22060;SDS011;11194;48.092;-1.382;2024-01-15T11:23:45;0.00;;;0.00;;
22060;SDS011;11194;48.092;-1.382;2024-01-15T11:28:56;0.10;;;0.10;;
22060;SDS011;11194;48.092;-1.382;2024-01-15T11:31:30;0.10;;;0.10;;
22060;SDS011;11194;48.092;-1.382;2024-01-15T11:34:13;0.10;;;0.10;;
22060;SDS011;11194;48.092;-1.382;2024-01-15T11:42:03;0.10;;;0.10;;
22060;SDS011;11194;48.092;-1.382;2024-01-15T11:44:29;0.10;;;0.10;;
22060;SDS011;11194;48.092;-1.382;2024-01-15T11:46:59;0.10;;;0.10;;
22060;SDS011;11194;48.092;-1.382;2024-01-15T11:52:12;0.00;;;0.00;;
22060;SDS011;11194;48.092;-1.382;2024-01-15T11:54:40;0.10;;;0.10;;
22060;SDS011;11194;48.092;-1.382;2024-01-15T11:57:09;0.00;;;0.00;;
22060;SDS011;11194;48.092;-1.382;2024-01-15T11:59:35;0.10;;;0.10;;
22060;SDS011;11194;48.092;-1.382;2024-01-15T12:02:02;0.10;;;0.10;;
22060;SDS011;11194;48.092;-1.382;2024-01-15T12:04:28;0.10;;;0.10;;
22060;SDS011;11194;48.092;-1.382;2024-01-15T12:06:54;0.10;;;0.10;;
22060;SDS011;11194;48.092;-1.382;2024-01-15T12:09:20;0.13;;;0.13;;
22060;SDS011;11194;48.092;-1.382;2024-01-15T12:11:48;0.20;;;0.20;;
22060;SDS011;11194;48.092;-1.382;2024-01-15T12:14:16;0.10;;;0.10;;
22060;SDS011;11194;48.092;-1.382;2024-01-15T12:16:42;0.10;;;0.10;;
22060;SDS011;11194;48.092;-1.382;2024-01-15T12:19:09;0.10;;;0.10;;
22060;SDS011;11194;48.092;-1.382;2024-01-15T12:21:35;0.10;;;0.10;;
22060;SDS011;11194;48.092;-1.382;2024-01-15T12:24:01;0.10;;;0.10;;
22060;SDS011;11194;48.092;-1.382;2024-01-15T12:26:27;0.10;;;0.10;;
22060;SDS011;11194;48.092;-1.382;2024-01-15T12:28:53;0.10;;;0.10;;
22060;SDS011;11194;48.092;-1.382;2024-01-15T12:31:20;0.10;;;0.10;;
22060;SDS011;11194;48.092;-1.382;2024-01-15T12:33:46;0.10;;;0.10;;
22060;SDS011;11194;48.092;-1.382;2024-01-15T12:36:13;0.10;;;0.10;;
22060;SDS011;11194;48.092;-1.382;2024-01-15T12:38:39;0.10;;;0.10;;
22060;SDS011;11194;48.092;-1.382;2024-01-15T12:41:05;0.10;;;0.10;;
22060;SDS011;11194;48.092;-1.382;2024-01-15T12:43:31;0.10;;;0.10;;
22060;SDS011;11194;48.092;-1.382;2024-01-15T12:45:57;0.10;;;0.10;;
22060;SDS011;11194;48.092;-1.382;2024-01-15T12:48:23;0.10;;;0.10;;
22060;SDS011;11194;48.092;-1.382;2024-01-15T12:50:51;0.00;;;0.00;;
22060;SDS011;11194;48.092;-1.382;2024-01-15T12:53:18;0.10;;;0.10;;
22060;SDS011;11194;48.092;-1.382;2024-01-15T12:55:44;0.10;;;0.10;;
22060;SDS011;11194;48.092;-1.382;2024-01-15T12:58:10;0.10;;;0.10;;
22060;SDS011;11194;48.092;-1.382;2024-01-15T13:00:36;0.10;;;0.10;;
22060;SDS011;11194;48.092;-1.382;2024-01-15T13:03:02;0.08;;;0.08;;
22060;SDS011;11194;48.092;-1.382;2024-01-15T13:05:28;0.10;;;0.10;;
22060;SDS011;11194;48.092;-1.382;2024-01-15T13:07:55;0.10;;;0.10;;
22060;SDS011;11194;48.092;-1.382;2024-01-15T13:10:21;0.10;;;0.10;;
22060;SDS011;11194;48.092;-1.382;2024-01-15T13:12:47;0.10;;;0.10;;
22060;SDS011;11194;48.092;-1.382;2024-01-15T13:15:13;0.10;;;0.10;;
22060;SDS011;11194;48.092;-1.382;2024-01-15T13:17:39;0.10;;;0.10;;
22060;SDS011;11194;48.092;-1.382;2024-01-15T13:20:06;0.10;;;0.10;;
22060;SDS011;11194;48.092;-1.382;2024-01-15T13:22:33;0.05;;;0.05;;
22060;SDS011;11194;48.092;-1.382;2024-01-15T13:24:59;0.00;;;0.00;;
22060;SDS011;11194;48.092;-1.382;2024-01-15T13:27:25;0.00;;;0.00;;
22060;SDS011;11194;48.092;-1.382;2024-01-15T13:29:51;0.03;;;0.03;;
22060;SDS011;11194;48.092;-1.382;2024-01-15T13:32:25;0.00;;;0.00;;
22060;SDS011;11194;48.092;-1.382;2024-01-15T13:34:55;0.00;;;0.00;;
22060;SDS011;11194;48.092;-1.382;2024-01-15T13:37:21;0.00;;;0.00;;
22060;SDS011;11194;48.092;-1.382;2024-01-15T13:39:49;0.10;;;0.10;;
22060;SDS011;11194;48.092;-1.382;2024-01-15T13:42:17;0.10;;;0.10;;
22060;SDS011;11194;48.092;-1.382;2024-01-15T13:44:43;0.00;;;0.00;;
22060;SDS011;11194;48.092;-1.382;2024-01-15T13:47:09;0.10;;;0.10;;
22060;SDS011;11194;48.092;-1.382;2024-01-15T13:49:35;0.10;;;0.10;;
22060;SDS011;11194;48.092;-1.382;2024-01-15T13:52:02;0.10;;;0.10;;
22060;SDS011;11194;48.092;-1.382;2024-01-15T13:54:29;0.05;;;0.05;;
22060;SDS011;11194;48.092;-1.382;2024-01-15T13:56:55;0.10;;;0.10;;
22060;SDS011;11194;48.092;-1.382;2024-01-15T13:59:21;0.00;;;0.00;;
22060;SDS011;11194;48.092;-1.382;2024-01-15T14:01:48;0.00;;;0.00;;
22060;SDS011;11194;48.092;-1.382;2024-01-15T14:04:14;0.10;;;0.10;;
22060;SDS011;11194;48.092;-1.382;2024-01-15T14:06:40;0.00;;;0.00;;